sensor_id;sensor_type;location;lat;lon;timestamp;P1;durP1;ratioP1;P2;durP2;ratioP2
48941;SDS011;35340;52.378;4.648;2022-08-30T02:32:53;5.68;;;2.25;;
48941;SDS011;35340;52.378;4.648;2022-08-30T02:35:18;3.72;;;2.08;;
48941;SDS011;35340;52.378;4.648;2022-08-30T02:37:44;3.33;;;1.83;;
48941;SDS011;35340;52.378;4.648;2022-08-30T02:40:09;3.67;;;2.28;;
48941;SDS011;35340;52.378;4.648;2022-08-30T02:42:35;4.38;;;1.90;;
48941;SDS011;35340;52.378;4.648;2022-08-30T02:45:00;3.55;;;1.98;;
48941;SDS011;35340;52.378;4.648;2022-08-30T02:47:26;3.38;;;1.90;;
48941;SDS011;35340;52.378;4.648;2022-08-30T02:49:52;6.97;;;2.17;;
48941;SDS011;35340;52.378;4.648;2022-08-30T02:52:17;6.18;;;2.15;;
48941;SDS011;35340;52.378;4.648;2022-08-30T02:54:44;3.80;;;2.15;;
48941;SDS011;35340;52.378;4.648;2022-08-30T02:57:09;3.03;;;1.90;;
48941;SDS011;35340;52.378;4.648;2022-08-30T02:59:37;3.53;;;1.83;;
48941;SDS011;35340;52.378;4.648;2022-08-30T03:02:04;5.18;;;1.90;;
48941;SDS011;35340;52.378;4.648;2022-08-30T03:04:30;3.17;;;1.77;;
48941;SDS011;35340;52.378;4.648;2022-08-30T03:06:55;2.90;;;1.98;;
48941;SDS011;35340;52.378;4.648;2022-08-30T03:09:21;3.92;;;2.15;;
48941;SDS011;35340;52.378;4.648;2022-08-30T03:11:46;4.65;;;2.00;;
48941;SDS011;35340;52.378;4.648;2022-08-30T03:14:12;4.55;;;1.95;;
48941;SDS011;35340;52.378;4.648;2022-08-30T03:16:37;3.40;;;1.85;;
48941;SDS011;35340;52.378;4.648;2022-08-30T03:19:03;3.55;;;1.75;;
48941;SDS011;35340;52.378;4.648;2022-08-30T03:21:28;4.03;;;1.80;;
48941;SDS011;35340;52.378;4.648;2022-08-30T03:23:54;4.05;;;1.70;;
48941;SDS011;35340;52.378;4.648;2022-08-30T03:26:19;3.85;;;1.95;;
48941;SDS011;35340;52.378;4.648;2022-08-30T03:28:44;5.10;;;1.85;;
48941;SDS011;35340;52.378;4.648;2022-08-30T03:31:10;4.32;;;2.00;;
48941;SDS011;35340;52.378;4.648;2022-08-30T03:33:36;3.17;;;1.90;;
48941;SDS011;35340;52.378;4.648;2022-08-30T03:36:04;4.10;;;1.75;;
48941;SDS011;35340;52.378;4.648;2022-08-30T03:38:30;1.92;;;1.50;;
48941;SDS011;35340;52.378;4.648;2022-08-30T03:40:56;3.75;;;1.90;;
48941;SDS011;35340;52.378;4.648;2022-08-30T03:43:21;3.03;;;1.77;;
48941;SDS011;35340;52.378;4.648;2022-08-30T03:45:46;4.00;;;1.67;;
48941;SDS011;35340;52.378;4.648;2022-08-30T03:48:12;2.63;;;1.80;;
48941;SDS011;35340;52.378;4.648;2022-08-30T03:50:37;3.22;;;1.77;;
48941;SDS011;35340;52.378;4.648;2022-08-30T03:53:04;3.20;;;1.63;;
48941;SDS011;35340;52.378;4.648;2022-08-30T03:55:29;3.92;;;1.63;;
48941;SDS011;35340;52.378;4.648;2022-08-30T03:57:55;3.28;;;1.60;;
48941;SDS011;35340;52.378;4.648;2022-08-30T04:00:21;2.22;;;1.65;;
48941;SDS011;35340;52.378;4.648;2022-08-30T04:02:47;2.70;;;1.65;;
48941;SDS011;35340;52.378;4.648;2022-08-30T04:05:12;3.33;;;1.80;;
48941;SDS011;35340;52.378;4.648;2022-08-30T04:07:38;3.35;;;1.92;;
48941;SDS011;35340;52.378;4.648;2022-08-30T04:10:05;2.83;;;1.63;;
48941;SDS011;35340;52.378;4.648;2022-08-30T04:12:31;2.30;;;1.65;;
48941;SDS011;35340;52.378;4.648;2022-08-30T04:14:57;2.60;;;1.90;;
48941;SDS011;35340;52.378;4.648;2022-08-30T04:17:22;2.70;;;1.83;;
48941;SDS011;35340;52.378;4.648;2022-08-30T04:19:48;3.40;;;1.83;;
48941;SDS011;35340;52.378;4.648;2022-08-30T04:22:14;3.35;;;1.50;;
48941;SDS011;35340;52.378;4.648;2022-08-30T04:24:40;3.65;;;2.00;;
48941;SDS011;35340;52.378;4.648;2022-08-30T04:27:05;3.05;;;2.00;;
48941;SDS011;35340;52.378;4.648;2022-08-30T04:29:32;4.25;;;1.90;;
48941;SDS011;35340;52.378;4.648;2022-08-30T04:31:58;3.78;;;1.80;;
48941;SDS011;35340;52.378;4.648;2022-08-30T04:34:23;2.55;;;1.52;;
48941;SDS011;35340;52.378;4.648;2022-08-30T04:36:48;3.13;;;1.80;;
48941;SDS011;35340;52.378;4.648;2022-08-30T04:39:14;3.65;;;1.85;;
48941;SDS011;35340;52.378;4.648;2022-08-30T04:41:41;2.45;;;1.52;;
48941;SDS011;35340;52.378;4.648;2022-08-30T04:44:06;3.40;;;1.80;;
48941;SDS011;35340;52.378;4.648;2022-08-30T04:46:33;3.45;;;2.17;;
48941;SDS011;35340;52.378;4.648;2022-08-30T04:49:00;3.25;;;2.00;;
48941;SDS011;35340;52.378;4.648;2022-08-30T04:51:25;5.70;;;2.00;;
48941;SDS011;35340;52.378;4.648;2022-08-30T04:53:51;4.53;;;1.92;;
48941;SDS011;35340;52.378;4.648;2022-08-30T04:56:20;8.63;;;1.80;;
48941;SDS011;35340;52.378;4.648;2022-08-30T04:58:49;3.33;;;1.80;;
48941;SDS011;35340;52.378;4.648;2022-08-30T05:01:20;4.13;;;1.67;;
48941;SDS011;35340;52.378;4.648;2022-08-30T05:03:49;4.73;;;2.00;;
48941;SDS011;35340;52.378;4.648;2022-08-30T05:06:15;2.85;;;2.15;;
48941;SDS011;35340;52.378;4.648;2022-08-30T05:08:41;4.95;;;2.10;;
48941;SDS011;35340;52.378;4.648;2022-08-30T05:11:06;4.15;;;2.30;;
48941;SDS011;35340;52.378;4.648;2022-08-30T05:13:33;3.60;;;2.03;;
48941;SDS011;35340;52.378;4.648;2022-08-30T05:15:59;4.40;;;2.22;;
48941;SDS011;35340;52.378;4.648;2022-08-30T05:18:25;3.70;;;1.80;;
48941;SDS011;35340;52.378;4.648;2022-08-30T05:21:04;3.13;;;1.90;;
48941;SDS011;35340;52.378;4.648;2022-08-30T05:23:37;3.25;;;1.98;;
48941;SDS011;35340;52.378;4.648;2022-08-30T05:26:05;3.35;;;1.80;;
48941;SDS011;35340;52.378;4.648;2022-08-30T05:28:32;3.50;;;2.22;;
48941;SDS011;35340;52.378;4.648;2022-08-30T05:30:58;4.88;;;2.10;;
48941;SDS011;35340;52.378;4.648;2022-08-30T05:33:24;3.60;;;1.83;;
48941;SDS011;35340;52.378;4.648;2022-08-30T05:35:49;6.20;;;2.33;;
48941;SDS011;35340;52.378;4.648;2022-08-30T05:38:15;5.25;;;2.30;;
48941;SDS011;35340;52.378;4.648;2022-08-30T05:40:41;11.55;;;4.05;;
48941;SDS011;35340;52.378;4.648;2022-08-30T05:43:07;6.53;;;3.22;;
48941;SDS011;35340;52.378;4.648;2022-08-30T05:45:35;8.95;;;4.07;;
48941;SDS011;35340;52.378;4.648;2022-08-30T05:48:01;13.52;;;4.60;;
48941;SDS011;35340;52.378;4.648;2022-08-30T05:50:26;11.43;;;4.53;;
48941;SDS011;35340;52.378;4.648;2022-08-30T05:52:51;12.25;;;4.32;;
48941;SDS011;35340;52.378;4.648;2022-08-30T05:55:17;9.75;;;4.30;;
48941;SDS011;35340;52.378;4.648;2022-08-30T05:57:43;8.68;;;4.10;;
48941;SDS011;35340;52.378;4.648;2022-08-30T06:00:12;14.68;;;4.53;;
48941;SDS011;35340;52.378;4.648;2022-08-30T06:02:40;13.32;;;4.70;;
48941;SDS011;35340;52.378;4.648;2022-08-30T06:05:07;9.38;;;4.88;;
48941;SDS011;35340;52.378;4.648;2022-08-30T06:07:34;12.38;;;4.88;;
48941;SDS011;35340;52.378;4.648;2022-08-30T06:09:59;12.57;;;4.63;;
48941;SDS011;35340;52.378;4.648;2022-08-30T06:12:25;6.63;;;4.10;;
48941;SDS011;35340;52.378;4.648;2022-08-30T06:14:51;12.98;;;5.88;;
48941;SDS011;35340;52.378;4.648;2022-08-30T06:17:16;11.75;;;6.00;;
48941;SDS011;35340;52.378;4.648;2022-08-30T06:19:42;12.50;;;6.63;;
48941;SDS011;35340;52.378;4.648;2022-08-30T06:22:07;11.10;;;5.45;;
48941;SDS011;35340;52.378;4.648;2022-08-30T06:24:33;15.05;;;5.30;;
48941;SDS011;35340;52.378;4.648;2022-08-30T06:27:00;8.70;;;5.00;;
48941;SDS011;35340;52.378;4.648;2022-08-30T06:29:26;10.82;;;4.35;;
48941;SDS011;35340;52.378;4.648;2022-08-30T06:31:51;7.82;;;4.25;;
48941;SDS011;35340;52.378;4.648;2022-08-30T06:34:16;9.32;;;4.45;;
48941;SDS011;35340;52.378;4.648;2022-08-30T06:36:42;12.25;;;4.80;;
48941;SDS011;35340;52.378;4.648;2022-08-30T06:39:08;11.02;;;4.07;;
48941;SDS011;35340;52.378;4.648;2022-08-30T06:41:34;7.35;;;3.95;;
48941;SDS011;35340;52.378;4.648;2022-08-30T06:44:02;10.75;;;3.90;;
48941;SDS011;35340;52.378;4.648;2022-08-30T06:46:30;10.60;;;4.20;;
48941;SDS011;35340;52.378;4.648;2022-08-30T06:48:57;10.00;;;3.65;;
48941;SDS011;35340;52.378;4.648;2022-08-30T06:51:27;9.13;;;3.92;;
48941;SDS011;35340;52.378;4.648;2022-08-30T06:53:54;7.90;;;3.80;;
48941;SDS011;35340;52.378;4.648;2022-08-30T06:56:20;7.40;;;3.30;;
48941;SDS011;35340;52.378;4.648;2022-08-30T06:58:47;10.85;;;3.28;;
48941;SDS011;35340;52.378;4.648;2022-08-30T07:01:14;12.25;;;3.03;;
48941;SDS011;35340;52.378;4.648;2022-08-30T07:03:42;4.72;;;2.40;;
48941;SDS011;35340;52.378;4.648;2022-08-30T07:06:07;6.97;;;2.58;;
48941;SDS011;35340;52.378;4.648;2022-08-30T07:08:33;7.90;;;2.50;;
48941;SDS011;35340;52.378;4.648;2022-08-30T07:10:59;6.68;;;2.20;;
48941;SDS011;35340;52.378;4.648;2022-08-30T07:13:24;6.47;;;2.22;;
48941;SDS011;35340;52.378;4.648;2022-08-30T07:15:52;8.88;;;2.40;;
48941;SDS011;35340;52.378;4.648;2022-08-30T07:18:18;6.00;;;2.30;;
48941;SDS011;35340;52.378;4.648;2022-08-30T07:21:06;6.78;;;2.03;;
48941;SDS011;35340;52.378;4.648;2022-08-30T07:23:34;5.23;;;1.90;;
48941;SDS011;35340;52.378;4.648;2022-08-30T07:26:08;7.20;;;1.80;;
48941;SDS011;35340;52.378;4.648;2022-08-30T07:28:37;5.30;;;1.90;;
48941;SDS011;35340;52.378;4.648;2022-08-30T07:31:04;13.00;;;2.10;;
48941;SDS011;35340;52.378;4.648;2022-08-30T07:33:31;7.38;;;1.80;;
48941;SDS011;35340;52.378;4.648;2022-08-30T07:35:57;6.22;;;1.92;;
48941;SDS011;35340;52.378;4.648;2022-08-30T07:38:23;5.90;;;2.20;;
48941;SDS011;35340;52.378;4.648;2022-08-30T07:40:50;3.22;;;1.60;;
48941;SDS011;35340;52.378;4.648;2022-08-30T07:43:15;4.57;;;1.42;;
48941;SDS011;35340;52.378;4.648;2022-08-30T07:45:40;4.72;;;1.63;;
48941;SDS011;35340;52.378;4.648;2022-08-30T07:48:06;3.90;;;1.50;;
48941;SDS011;35340;52.378;4.648;2022-08-30T07:50:32;3.17;;;1.50;;
48941;SDS011;35340;52.378;4.648;2022-08-30T07:52:58;4.65;;;1.65;;
48941;SDS011;35340;52.378;4.648;2022-08-30T07:55:23;6.82;;;1.67;;
48941;SDS011;35340;52.378;4.648;2022-08-30T07:57:49;4.18;;;1.30;;
48941;SDS011;35340;52.378;4.648;2022-08-30T08:00:15;7.43;;;1.65;;
48941;SDS011;35340;52.378;4.648;2022-08-30T08:02:40;6.20;;;2.03;;
48941;SDS011;35340;52.378;4.648;2022-08-30T08:05:06;5.38;;;1.67;;
48941;SDS011;35340;52.378;4.648;2022-08-30T08:07:33;4.85;;;1.80;;
48941;SDS011;35340;52.378;4.648;2022-08-30T08:09:59;6.38;;;1.85;;
48941;SDS011;35340;52.378;4.648;2022-08-30T08:12:24;3.45;;;1.48;;
48941;SDS011;35340;52.378;4.648;2022-08-30T08:14:50;3.17;;;1.50;;
48941;SDS011;35340;52.378;4.648;2022-08-30T08:17:16;2.95;;;1.40;;
48941;SDS011;35340;52.378;4.648;2022-08-30T08:19:42;4.30;;;1.52;;
48941;SDS011;35340;52.378;4.648;2022-08-30T08:22:07;4.65;;;1.45;;
48941;SDS011;35340;52.378;4.648;2022-08-30T08:24:32;4.53;;;1.67;;
48941;SDS011;35340;52.378;4.648;2022-08-30T08:26:58;5.00;;;1.55;;
48941;SDS011;35340;52.378;4.648;2022-08-30T08:29:23;3.75;;;1.50;;
48941;SDS011;35340;52.378;4.648;2022-08-30T08:31:50;4.75;;;1.58;;
48941;SDS011;35340;52.378;4.648;2022-08-30T08:34:16;4.10;;;1.17;;
48941;SDS011;35340;52.378;4.648;2022-08-30T08:36:43;4.93;;;1.73;;
48941;SDS011;35340;52.378;4.648;2022-08-30T08:39:09;8.05;;;1.70;;
48941;SDS011;35340;52.378;4.648;2022-08-30T08:44:06;7.40;;;1.60;;
48941;SDS011;35340;52.378;4.648;2022-08-30T08:49:05;5.20;;;1.88;;
48941;SDS011;35340;52.378;4.648;2022-08-30T08:51:33;3.22;;;1.58;;
48941;SDS011;35340;52.378;4.648;2022-08-30T08:54:12;8.18;;;1.73;;
48941;SDS011;35340;52.378;4.648;2022-08-30T08:56:43;4.55;;;1.60;;
48941;SDS011;35340;52.378;4.648;2022-08-30T08:59:09;5.15;;;1.60;;
48941;SDS011;35340;52.378;4.648;2022-08-30T09:01:36;4.88;;;1.48;;
48941;SDS011;35340;52.378;4.648;2022-08-30T09:04:14;4.53;;;1.73;;
48941;SDS011;35340;52.378;4.648;2022-08-30T09:06:45;11.05;;;1.80;;
48941;SDS011;35340;52.378;4.648;2022-08-30T09:09:15;3.88;;;1.70;;
48941;SDS011;35340;52.378;4.648;2022-08-30T09:11:45;8.43;;;1.95;;
48941;SDS011;35340;52.378;4.648;2022-08-30T09:14:13;6.05;;;1.90;;
48941;SDS011;35340;52.378;4.648;2022-08-30T09:24:36;5.03;;;1.70;;
48941;SDS011;35340;52.378;4.648;2022-08-30T09:27:17;5.03;;;1.50;;
48941;SDS011;35340;52.378;4.648;2022-08-30T09:29:49;3.65;;;1.60;;
48941;SDS011;35340;52.378;4.648;2022-08-30T09:35:04;2.80;;;1.50;;
48941;SDS011;35340;52.378;4.648;2022-08-30T09:37:37;5.32;;;1.50;;
48941;SDS011;35340;52.378;4.648;2022-08-30T09:40:09;4.97;;;1.70;;
48941;SDS011;35340;52.378;4.648;2022-08-30T09:42:38;4.40;;;1.42;;
48941;SDS011;35340;52.378;4.648;2022-08-30T09:45:04;4.05;;;1.70;;
48941;SDS011;35340;52.378;4.648;2022-08-30T09:47:35;2.85;;;1.65;;
48941;SDS011;35340;52.378;4.648;2022-08-30T09:50:14;5.75;;;1.70;;
48941;SDS011;35340;52.378;4.648;2022-08-30T10:01:26;7.55;;;1.40;;
48941;SDS011;35340;52.378;4.648;2022-08-30T10:07:03;4.47;;;1.48;;
48941;SDS011;35340;52.378;4.648;2022-08-30T10:12:10;5.03;;;1.48;;
48941;SDS011;35340;52.378;4.648;2022-08-30T10:15:16;5.40;;;1.55;;
48941;SDS011;35340;52.378;4.648;2022-08-30T10:17:55;5.60;;;1.55;;
48941;SDS011;35340;52.378;4.648;2022-08-30T10:20:30;7.13;;;1.60;;
48941;SDS011;35340;52.378;4.648;2022-08-30T10:23:04;3.45;;;1.50;;
48941;SDS011;35340;52.378;4.648;2022-08-30T10:25:34;4.70;;;1.75;;
48941;SDS011;35340;52.378;4.648;2022-08-30T10:28:12;3.90;;;1.70;;
48941;SDS011;35340;52.378;4.648;2022-08-30T10:30:46;3.45;;;1.75;;
48941;SDS011;35340;52.378;4.648;2022-08-30T10:33:17;2.88;;;1.63;;
48941;SDS011;35340;52.378;4.648;2022-08-30T10:35:49;5.32;;;1.63;;
48941;SDS011;35340;52.378;4.648;2022-08-30T10:38:26;3.55;;;1.50;;
48941;SDS011;35340;52.378;4.648;2022-08-30T10:41:06;3.53;;;1.67;;
48941;SDS011;35340;52.378;4.648;2022-08-30T10:46:04;4.55;;;1.63;;
48941;SDS011;35340;52.378;4.648;2022-08-30T10:48:36;4.05;;;1.48;;
48941;SDS011;35340;52.378;4.648;2022-08-30T10:51:09;5.07;;;1.40;;
48941;SDS011;35340;52.378;4.648;2022-08-30T10:56:06;3.75;;;1.52;;
48941;SDS011;35340;52.378;4.648;2022-08-30T10:58:38;5.43;;;1.80;;
48941;SDS011;35340;52.378;4.648;2022-08-30T11:14:55;4.60;;;1.90;;
48941;SDS011;35340;52.378;4.648;2022-08-30T11:19:53;7.20;;;2.17;;
48941;SDS011;35340;52.378;4.648;2022-08-30T11:22:23;5.88;;;1.77;;
48941;SDS011;35340;52.378;4.648;2022-08-30T11:33:02;6.70;;;1.70;;
48941;SDS011;35340;52.378;4.648;2022-08-30T11:35:40;7.32;;;1.77;;
48941;SDS011;35340;52.378;4.648;2022-08-30T11:40:50;3.45;;;1.70;;
48941;SDS011;35340;52.378;4.648;2022-08-30T11:46:14;5.28;;;1.60;;
48941;SDS011;35340;52.378;4.648;2022-08-30T11:48:53;3.60;;;1.55;;
48941;SDS011;35340;52.378;4.648;2022-08-30T11:51:37;4.00;;;1.50;;
48941;SDS011;35340;52.378;4.648;2022-08-30T11:59:06;6.47;;;1.73;;
48941;SDS011;35340;52.378;4.648;2022-08-30T12:01:54;5.10;;;2.10;;
48941;SDS011;35340;52.378;4.648;2022-08-30T12:12:03;7.38;;;2.00;;
48941;SDS011;35340;52.378;4.648;2022-08-30T12:14:37;3.22;;;1.70;;
48941;SDS011;35340;52.378;4.648;2022-08-30T12:20:10;4.28;;;1.90;;
48941;SDS011;35340;52.378;4.648;2022-08-30T12:22:41;4.13;;;2.20;;
48941;SDS011;35340;52.378;4.648;2022-08-30T12:25:30;8.63;;;2.00;;
48941;SDS011;35340;52.378;4.648;2022-08-30T12:28:13;4.63;;;1.92;;
48941;SDS011;35340;52.378;4.648;2022-08-30T12:30:44;4.97;;;2.05;;
48941;SDS011;35340;52.378;4.648;2022-08-30T12:33:11;7.00;;;1.90;;
48941;SDS011;35340;52.378;4.648;2022-08-30T12:35:39;5.63;;;1.75;;
48941;SDS011;35340;52.378;4.648;2022-08-30T12:38:06;5.38;;;1.90;;
48941;SDS011;35340;52.378;4.648;2022-08-30T12:40:41;4.20;;;1.80;;
48941;SDS011;35340;52.378;4.648;2022-08-30T12:43:06;5.40;;;2.00;;
48941;SDS011;35340;52.378;4.648;2022-08-30T12:45:45;4.07;;;1.90;;
48941;SDS011;35340;52.378;4.648;2022-08-30T12:48:13;5.90;;;1.88;;
48941;SDS011;35340;52.378;4.648;2022-08-30T12:50:49;6.13;;;1.98;;
48941;SDS011;35340;52.378;4.648;2022-08-30T12:53:27;4.53;;;1.88;;
48941;SDS011;35340;52.378;4.648;2022-08-30T13:03:54;6.53;;;2.00;;
48941;SDS011;35340;52.378;4.648;2022-08-30T13:09:05;3.75;;;1.95;;
48941;SDS011;35340;52.378;4.648;2022-08-30T13:11:30;7.65;;;1.52;;
48941;SDS011;35340;52.378;4.648;2022-08-30T13:14:18;3.90;;;1.80;;
48941;SDS011;35340;52.378;4.648;2022-08-30T13:17:09;4.45;;;2.10;;
48941;SDS011;35340;52.378;4.648;2022-08-30T13:19:40;8.73;;;1.85;;
48941;SDS011;35340;52.378;4.648;2022-08-30T13:22:05;7.40;;;1.70;;
48941;SDS011;35340;52.378;4.648;2022-08-30T13:24:49;3.15;;;1.52;;
48941;SDS011;35340;52.378;4.648;2022-08-30T13:27:16;4.30;;;1.70;;
48941;SDS011;35340;52.378;4.648;2022-08-30T13:29:42;4.50;;;1.60;;
48941;SDS011;35340;52.378;4.648;2022-08-30T13:32:07;9.13;;;1.98;;
48941;SDS011;35340;52.378;4.648;2022-08-30T13:34:33;3.03;;;1.50;;
48941;SDS011;35340;52.378;4.648;2022-08-30T13:36:59;4.78;;;1.75;;
48941;SDS011;35340;52.378;4.648;2022-08-30T13:39:26;3.40;;;1.60;;
48941;SDS011;35340;52.378;4.648;2022-08-30T13:41:52;4.80;;;1.70;;
48941;SDS011;35340;52.378;4.648;2022-08-30T13:44:21;3.88;;;1.80;;
48941;SDS011;35340;52.378;4.648;2022-08-30T13:46:48;2.88;;;1.50;;
48941;SDS011;35340;52.378;4.648;2022-08-30T13:49:17;3.47;;;1.70;;
48941;SDS011;35340;52.378;4.648;2022-08-30T13:51:45;7.07;;;2.20;;
48941;SDS011;35340;52.378;4.648;2022-08-30T13:54:12;3.22;;;1.70;;
48941;SDS011;35340;52.378;4.648;2022-08-30T13:56:38;2.78;;;1.92;;
48941;SDS011;35340;52.378;4.648;2022-08-30T13:59:03;3.72;;;1.70;;
48941;SDS011;35340;52.378;4.648;2022-08-30T14:01:29;2.55;;;1.55;;
48941;SDS011;35340;52.378;4.648;2022-08-30T14:03:54;2.53;;;1.63;;
48941;SDS011;35340;52.378;4.648;2022-08-30T14:06:20;2.88;;;1.50;;
48941;SDS011;35340;52.378;4.648;2022-08-30T14:08:45;2.85;;;1.80;;
48941;SDS011;35340;52.378;4.648;2022-08-30T14:11:11;2.95;;;1.90;;
48941;SDS011;35340;52.378;4.648;2022-08-30T14:13:40;4.97;;;1.88;;
48941;SDS011;35340;52.378;4.648;2022-08-30T14:16:06;5.37;;;1.50;;
48941;SDS011;35340;52.378;4.648;2022-08-30T14:18:32;3.08;;;1.65;;
48941;SDS011;35340;52.378;4.648;2022-08-30T14:20:58;8.10;;;1.50;;
48941;SDS011;35340;52.378;4.648;2022-08-30T14:23:24;3.40;;;1.70;;
48941;SDS011;35340;52.378;4.648;2022-08-30T14:25:51;2.92;;;1.52;;
48941;SDS011;35340;52.378;4.648;2022-08-30T14:28:17;4.20;;;1.80;;
48941;SDS011;35340;52.378;4.648;2022-08-30T14:30:42;11.57;;;3.92;;
48941;SDS011;35340;52.378;4.648;2022-08-30T14:33:08;9.82;;;3.50;;
48941;SDS011;35340;52.378;4.648;2022-08-30T14:35:33;5.95;;;2.95;;
48941;SDS011;35340;52.378;4.648;2022-08-30T14:37:59;7.70;;;2.60;;
48941;SDS011;35340;52.378;4.648;2022-08-30T14:40:24;6.28;;;2.47;;
48941;SDS011;35340;52.378;4.648;2022-08-30T14:42:50;8.70;;;2.67;;
48941;SDS011;35340;52.378;4.648;2022-08-30T14:45:15;9.70;;;2.20;;
48941;SDS011;35340;52.378;4.648;2022-08-30T14:47:41;8.68;;;2.30;;
48941;SDS011;35340;52.378;4.648;2022-08-30T14:50:06;5.70;;;2.33;;
48941;SDS011;35340;52.378;4.648;2022-08-30T14:52:32;5.60;;;2.20;;
48941;SDS011;35340;52.378;4.648;2022-08-30T14:54:58;8.15;;;2.15;;
48941;SDS011;35340;52.378;4.648;2022-08-30T14:57:28;8.07;;;1.80;;
48941;SDS011;35340;52.378;4.648;2022-08-30T14:59:53;4.43;;;1.80;;
48941;SDS011;35340;52.378;4.648;2022-08-30T15:02:18;3.95;;;2.10;;
48941;SDS011;35340;52.378;4.648;2022-08-30T15:04:44;6.07;;;2.00;;
48941;SDS011;35340;52.378;4.648;2022-08-30T15:07:09;5.57;;;1.80;;
48941;SDS011;35340;52.378;4.648;2022-08-30T15:09:35;4.10;;;1.60;;
48941;SDS011;35340;52.378;4.648;2022-08-30T15:12:00;3.78;;;1.60;;
48941;SDS011;35340;52.378;4.648;2022-08-30T15:14:28;2.67;;;1.60;;
48941;SDS011;35340;52.378;4.648;2022-08-30T15:16:56;3.97;;;1.70;;
48941;SDS011;35340;52.378;4.648;2022-08-30T15:19:23;5.38;;;1.83;;
48941;SDS011;35340;52.378;4.648;2022-08-30T15:21:49;4.28;;;1.70;;
48941;SDS011;35340;52.378;4.648;2022-08-30T15:24:20;2.85;;;1.55;;
48941;SDS011;35340;52.378;4.648;2022-08-30T15:26:47;3.50;;;1.52;;
48941;SDS011;35340;52.378;4.648;2022-08-30T15:29:14;4.55;;;1.60;;
48941;SDS011;35340;52.378;4.648;2022-08-30T15:31:41;4.30;;;1.48;;
48941;SDS011;35340;52.378;4.648;2022-08-30T15:34:08;3.85;;;1.88;;
48941;SDS011;35340;52.378;4.648;2022-08-30T15:36:36;6.40;;;1.48;;
48941;SDS011;35340;52.378;4.648;2022-08-30T15:39:02;2.97;;;1.80;;
48941;SDS011;35340;52.378;4.648;2022-08-30T15:41:28;3.45;;;1.60;;
48941;SDS011;35340;52.378;4.648;2022-08-30T15:43:54;4.45;;;1.70;;
48941;SDS011;35340;52.378;4.648;2022-08-30T15:46:22;3.05;;;1.73;;
48941;SDS011;35340;52.378;4.648;2022-08-30T15:48:54;2.42;;;1.40;;
48941;SDS011;35340;52.378;4.648;2022-08-30T15:51:23;4.28;;;1.48;;
48941;SDS011;35340;52.378;4.648;2022-08-30T15:53:48;3.42;;;1.63;;
48941;SDS011;35340;52.378;4.648;2022-08-30T15:56:15;4.22;;;1.50;;
48941;SDS011;35340;52.378;4.648;2022-08-30T15:58:41;2.83;;;1.30;;
48941;SDS011;35340;52.378;4.648;2022-08-30T16:01:08;3.22;;;1.65;;
48941;SDS011;35340;52.378;4.648;2022-08-30T16:03:35;4.18;;;1.40;;
48941;SDS011;35340;52.378;4.648;2022-08-30T16:06:01;5.82;;;1.40;;
48941;SDS011;35340;52.378;4.648;2022-08-30T16:08:27;4.43;;;1.60;;
48941;SDS011;35340;52.378;4.648;2022-08-30T16:10:53;4.43;;;1.67;;
48941;SDS011;35340;52.378;4.648;2022-08-30T16:13:18;4.05;;;1.88;;
48941;SDS011;35340;52.378;4.648;2022-08-30T16:15:44;2.88;;;1.50;;
48941;SDS011;35340;52.378;4.648;2022-08-30T16:18:10;4.85;;;1.83;;
48941;SDS011;35340;52.378;4.648;2022-08-30T16:20:38;4.95;;;1.52;;
48941;SDS011;35340;52.378;4.648;2022-08-30T16:23:05;4.53;;;1.60;;
48941;SDS011;35340;52.378;4.648;2022-08-30T16:25:30;6.13;;;1.73;;
48941;SDS011;35340;52.378;4.648;2022-08-30T16:27:56;3.17;;;1.63;;
48941;SDS011;35340;52.378;4.648;2022-08-30T16:30:21;3.08;;;1.63;;
48941;SDS011;35340;52.378;4.648;2022-08-30T16:32:46;5.28;;;2.17;;
48941;SDS011;35340;52.378;4.648;2022-08-30T16:35:13;4.43;;;1.42;;
48941;SDS011;35340;52.378;4.648;2022-08-30T16:37:39;3.95;;;1.80;;
48941;SDS011;35340;52.378;4.648;2022-08-30T16:40:04;6.63;;;1.85;;
48941;SDS011;35340;52.378;4.648;2022-08-30T16:42:31;4.00;;;1.80;;
48941;SDS011;35340;52.378;4.648;2022-08-30T16:44:56;5.50;;;1.80;;
48941;SDS011;35340;52.378;4.648;2022-08-30T16:47:21;3.92;;;1.70;;
48941;SDS011;35340;52.378;4.648;2022-08-30T16:49:47;4.22;;;1.70;;
48941;SDS011;35340;52.378;4.648;2022-08-30T16:52:12;3.65;;;1.60;;
48941;SDS011;35340;52.378;4.648;2022-08-30T16:54:38;5.22;;;1.70;;
48941;SDS011;35340;52.378;4.648;2022-08-30T16:57:03;4.10;;;1.77;;
48941;SDS011;35340;52.378;4.648;2022-08-30T16:59:28;4.43;;;1.98;;
48941;SDS011;35340;52.378;4.648;2022-08-30T17:01:54;5.30;;;1.90;;
48941;SDS011;35340;52.378;4.648;2022-08-30T17:04:19;7.15;;;2.13;;
48941;SDS011;35340;52.378;4.648;2022-08-30T17:06:46;4.68;;;2.08;;
48941;SDS011;35340;52.378;4.648;2022-08-30T17:09:14;6.80;;;2.05;;
48941;SDS011;35340;52.378;4.648;2022-08-30T17:11:40;3.03;;;1.77;;
48941;SDS011;35340;52.378;4.648;2022-08-30T17:14:06;5.55;;;1.92;;
48941;SDS011;35340;52.378;4.648;2022-08-30T17:16:33;5.00;;;1.70;;
48941;SDS011;35340;52.378;4.648;2022-08-30T17:18:59;2.75;;;1.75;;
48941;SDS011;35340;52.378;4.648;2022-08-30T17:21:25;6.88;;;1.55;;
48941;SDS011;35340;52.378;4.648;2022-08-30T17:23:50;3.30;;;1.75;;
48941;SDS011;35340;52.378;4.648;2022-08-30T17:26:16;3.30;;;1.60;;
48941;SDS011;35340;52.378;4.648;2022-08-30T17:28:42;7.60;;;1.67;;
48941;SDS011;35340;52.378;4.648;2022-08-30T17:31:07;6.45;;;1.73;;
48941;SDS011;35340;52.378;4.648;2022-08-30T17:33:33;5.45;;;1.50;;
48941;SDS011;35340;52.378;4.648;2022-08-30T17:36:04;5.45;;;1.77;;
48941;SDS011;35340;52.378;4.648;2022-08-30T17:38:31;5.28;;;1.73;;
48941;SDS011;35340;52.378;4.648;2022-08-30T17:41:04;6.13;;;1.90;;
48941;SDS011;35340;52.378;4.648;2022-08-30T17:43:31;15.90;;;2.22;;
48941;SDS011;35340;52.378;4.648;2022-08-30T17:46:04;8.80;;;2.10;;
48941;SDS011;35340;52.378;4.648;2022-08-30T17:48:31;6.05;;;2.10;;
48941;SDS011;35340;52.378;4.648;2022-08-30T17:50:57;6.68;;;1.73;;
48941;SDS011;35340;52.378;4.648;2022-08-30T17:53:22;6.97;;;2.00;;
48941;SDS011;35340;52.378;4.648;2022-08-30T17:55:48;4.60;;;1.80;;
48941;SDS011;35340;52.378;4.648;2022-08-30T17:58:14;5.80;;;1.90;;
48941;SDS011;35340;52.378;4.648;2022-08-30T18:00:40;4.40;;;1.52;;
48941;SDS011;35340;52.378;4.648;2022-08-30T18:03:05;5.80;;;1.90;;
48941;SDS011;35340;52.378;4.648;2022-08-30T18:05:30;5.85;;;1.70;;
48941;SDS011;35340;52.378;4.648;2022-08-30T18:07:56;3.17;;;1.85;;
48941;SDS011;35340;52.378;4.648;2022-08-30T18:10:21;4.10;;;1.75;;
48941;SDS011;35340;52.378;4.648;2022-08-30T18:12:46;4.95;;;1.50;;
48941;SDS011;35340;52.378;4.648;2022-08-30T18:15:12;6.45;;;1.77;;
48941;SDS011;35340;52.378;4.648;2022-08-30T18:17:37;4.32;;;1.63;;
48941;SDS011;35340;52.378;4.648;2022-08-30T18:20:05;2.55;;;1.50;;
48941;SDS011;35340;52.378;4.648;2022-08-30T18:22:31;3.15;;;1.50;;
48941;SDS011;35340;52.378;4.648;2022-08-30T18:24:56;3.58;;;1.50;;
48941;SDS011;35340;52.378;4.648;2022-08-30T18:27:21;5.15;;;1.50;;
48941;SDS011;35340;52.378;4.648;2022-08-30T18:29:47;3.60;;;1.67;;
48941;SDS011;35340;52.378;4.648;2022-08-30T18:32:12;3.40;;;1.63;;
48941;SDS011;35340;52.378;4.648;2022-08-30T18:34:38;3.20;;;1.38;;
48941;SDS011;35340;52.378;4.648;2022-08-30T18:37:04;4.15;;;1.45;;
48941;SDS011;35340;52.378;4.648;2022-08-30T18:39:30;5.93;;;1.40;;
48941;SDS011;35340;52.378;4.648;2022-08-30T18:41:55;3.85;;;1.27;;
48941;SDS011;35340;52.378;4.648;2022-08-30T18:44:21;4.43;;;1.50;;
48941;SDS011;35340;52.378;4.648;2022-08-30T18:46:47;5.65;;;1.38;;
48941;SDS011;35340;52.378;4.648;2022-08-30T18:49:12;3.53;;;1.55;;
48941;SDS011;35340;52.378;4.648;2022-08-30T18:51:38;4.50;;;1.60;;
48941;SDS011;35340;52.378;4.648;2022-08-30T18:54:04;2.58;;;1.23;;